createdAt,value
2019-02-28T00:01:32.067Z,6.20
2019-02-28T00:03:59.556Z,6.30
2019-02-28T00:06:27.085Z,6.30
2019-02-28T00:08:54.624Z,6.30
2019-02-28T00:11:22.108Z,6.30
2019-02-28T00:13:52.315Z,6.20
2019-02-28T00:16:18.912Z,6.30
2019-02-28T00:18:49.648Z,6.30
2019-02-28T00:21:15.742Z,6.20
2019-02-28T00:23:43.242Z,6.20
2019-02-28T00:26:11.555Z,6.20
2019-02-28T00:28:39.984Z,6.10
2019-02-28T00:31:07.482Z,6.10
2019-02-28T00:33:35.002Z,6.10
2019-02-28T00:36:02.526Z,6.00
2019-02-28T00:38:30.428Z,6.00
2019-02-28T00:40:57.966Z,6.00
2019-02-28T00:43:25.812Z,6.00
2019-02-28T00:45:53.443Z,6.00
2019-02-28T00:48:21.732Z,6.00
2019-02-28T00:50:49.830Z,6.00
2019-02-28T00:53:17.383Z,5.90
2019-02-28T00:55:45.928Z,5.90
2019-02-28T00:58:14.182Z,5.90
2019-02-28T01:00:41.705Z,6.00
2019-02-28T01:03:09.264Z,5.90
2019-02-28T01:05:37.287Z,5.90
2019-02-28T01:08:04.934Z,5.80
2019-02-28T01:10:35.324Z,5.90
2019-02-28T01:13:01.815Z,5.90
2019-02-28T01:15:29.305Z,5.90
2019-02-28T01:17:57.121Z,5.90
2019-02-28T01:20:26.152Z,5.80
2019-02-28T01:22:53.653Z,5.80
2019-02-28T01:25:21.147Z,5.80
2019-02-28T01:27:48.659Z,5.70
2019-02-28T01:30:16.209Z,5.80
2019-02-28T01:32:43.725Z,5.80
2019-02-28T01:35:11.338Z,5.80
2019-02-28T01:37:38.864Z,5.70
2019-02-28T01:40:06.419Z,5.70
2019-02-28T01:42:33.926Z,5.70
2019-02-28T01:45:01.442Z,5.60
2019-02-28T01:47:29.007Z,5.60
2019-02-28T01:49:57.724Z,5.60
2019-02-28T01:52:25.801Z,5.60
2019-02-28T01:54:53.337Z,5.50
2019-02-28T01:57:20.821Z,5.50
2019-02-28T01:59:48.307Z,5.50
2019-02-28T02:02:15.813Z,5.40
2019-02-28T02:04:45.770Z,5.50
2019-02-28T02:07:12.643Z,5.40
2019-02-28T02:09:42.741Z,5.40
2019-02-28T02:12:09.437Z,5.40
2019-02-28T02:14:36.988Z,5.30
2019-02-28T02:17:04.466Z,5.30
2019-02-28T02:19:32.001Z,5.30
2019-02-28T02:21:59.484Z,5.30
2019-02-28T02:24:27.976Z,5.20
2019-02-28T02:26:56.311Z,5.20
2019-02-28T02:29:23.825Z,5.20
2019-02-28T02:31:51.312Z,5.20
2019-02-28T02:34:18.841Z,5.20
2019-02-28T02:36:53.035Z,5.20
2019-02-28T02:39:17.606Z,5.20
2019-02-28T02:41:45.100Z,5.20
2019-02-28T02:44:12.582Z,5.10
2019-02-28T02:46:40.069Z,5.10
2019-02-28T02:49:07.626Z,5.10
2019-02-28T02:51:35.108Z,5.10
2019-02-28T02:54:02.621Z,5.10
2019-02-28T02:56:30.326Z,5.10
2019-02-28T02:59:01.230Z,5.10
2019-02-28T03:01:27.106Z,5.10
2019-02-28T03:03:54.602Z,5.10
2019-02-28T03:06:22.156Z,5.10
2019-02-28T03:08:49.630Z,5.00
2019-02-28T03:11:17.122Z,5.00
2019-02-28T03:13:44.821Z,5.00
2019-02-28T03:16:12.375Z,5.00
2019-02-28T03:18:39.893Z,4.90
2019-02-28T03:21:07.349Z,5.00
2019-02-28T03:23:39.791Z,5.00
2019-02-28T03:26:06.929Z,5.00
2019-02-28T03:28:33.520Z,5.00
2019-02-28T03:31:11.707Z,5.00
2019-02-28T03:33:30.285Z,5.00
2019-02-28T03:35:57.773Z,5.10
2019-02-28T03:38:25.329Z,5.10
2019-02-28T03:40:52.869Z,5.20
2019-02-28T03:43:20.353Z,5.20
2019-02-28T03:45:47.865Z,5.20
2019-02-28T03:48:15.406Z,5.20
2019-02-28T03:50:42.897Z,5.20
2019-02-28T03:53:10.382Z,5.20
2019-02-28T03:55:40.873Z,5.20
2019-02-28T03:58:07.186Z,5.20
2019-02-28T04:00:34.689Z,5.20
2019-02-28T04:03:02.187Z,5.20
2019-02-28T04:05:29.732Z,5.10
2019-02-28T04:07:57.260Z,5.10
2019-02-28T04:10:24.722Z,5.10
2019-02-28T04:12:52.209Z,5.10
2019-02-28T04:15:19.956Z,5.10
2019-02-28T04:17:47.468Z,5.10
2019-02-28T04:20:14.948Z,5.10
2019-02-28T04:22:42.494Z,5.00
2019-02-28T04:25:10.007Z,5.00
2019-02-28T04:27:40.453Z,5.00
2019-02-28T04:30:08.406Z,5.10
2019-02-28T04:32:36.115Z,5.00
2019-02-28T04:35:03.782Z,5.00
2019-02-28T04:37:31.291Z,5.00
2019-02-28T04:39:58.853Z,5.10
2019-02-28T04:42:26.341Z,5.10
2019-02-28T04:44:53.827Z,5.10
2019-02-28T04:47:21.321Z,5.10
2019-02-28T04:49:48.805Z,5.00
2019-02-28T04:52:16.353Z,5.00
2019-02-28T04:54:43.856Z,5.00
2019-02-28T04:57:11.361Z,4.90
2019-02-28T04:59:38.943Z,5.00
2019-02-28T05:02:06.427Z,5.00
2019-02-28T05:04:36.153Z,5.00
2019-02-28T05:07:03.282Z,5.00
2019-02-28T05:09:30.899Z,5.00
2019-02-28T05:11:58.402Z,5.00
2019-02-28T05:14:25.925Z,4.90
2019-02-28T05:16:53.417Z,5.00
2019-02-28T05:19:20.911Z,5.00
2019-02-28T05:21:50.634Z,5.00
2019-02-28T05:24:17.799Z,5.00
2019-02-28T05:26:45.282Z,5.00
2019-02-28T05:29:13.053Z,5.10
2019-02-28T05:31:40.750Z,5.10
2019-02-28T05:34:08.285Z,5.20
2019-02-28T05:36:37.935Z,5.20
2019-02-28T05:39:06.017Z,5.10
2019-02-28T05:41:33.569Z,5.10
2019-02-28T05:44:03.276Z,5.20
2019-02-28T05:46:30.365Z,5.20
2019-02-28T05:48:57.903Z,5.30
2019-02-28T05:51:25.845Z,5.20
2019-02-28T05:53:53.362Z,5.30
2019-02-28T05:56:21.123Z,5.40
2019-02-28T05:58:49.382Z,5.40
2019-02-28T06:01:17.979Z,5.50
2019-02-28T06:03:47.889Z,5.60
2019-02-28T06:06:17.306Z,5.60
2019-02-28T06:08:46.603Z,5.70
2019-02-28T06:11:15.354Z,5.70
2019-02-28T06:13:42.933Z,5.80
2019-02-28T06:16:12.497Z,5.90
2019-02-28T06:18:40.147Z,5.90
2019-02-28T06:21:07.651Z,5.90
2019-02-28T06:23:35.142Z,6.00
2019-02-28T06:26:02.658Z,6.00
2019-02-28T06:28:31.151Z,6.10
2019-02-28T06:31:00.249Z,6.20
2019-02-28T06:33:30.540Z,6.50
2019-02-28T06:35:57.285Z,6.60
2019-02-28T06:38:24.879Z,6.70
2019-02-28T06:40:52.379Z,6.80
2019-02-28T06:43:19.909Z,6.90
2019-02-28T06:45:47.587Z,6.90
2019-02-28T06:48:15.109Z,7.00
2019-02-28T06:50:44.668Z,6.90
2019-02-28T06:53:12.001Z,7.00
2019-02-28T06:55:47.106Z,6.90
2019-02-28T06:58:15.776Z,6.90
2019-02-28T07:00:44.206Z,7.00
2019-02-28T07:03:12.597Z,7.00
2019-02-28T07:05:40.123Z,7.10
2019-02-28T07:08:07.634Z,7.20
2019-02-28T07:10:35.247Z,7.40
2019-02-28T07:13:04.626Z,7.50
2019-02-28T07:15:32.039Z,7.50
2019-02-28T07:17:59.569Z,7.60
2019-02-28T07:20:27.151Z,7.60
2019-02-28T07:22:55.730Z,7.60
2019-02-28T07:25:23.329Z,7.60
2019-02-28T07:27:50.819Z,7.70
2019-02-28T07:30:19.294Z,7.80
2019-02-28T07:32:47.101Z,8.00
2019-02-28T07:35:14.627Z,8.10
2019-02-28T07:37:42.107Z,8.20
2019-02-28T07:40:15.516Z,8.20
2019-02-28T07:42:39.792Z,8.30
2019-02-28T07:45:08.461Z,8.30
2019-02-28T07:47:35.945Z,8.30
2019-02-28T07:50:04.057Z,8.40
2019-02-28T07:52:33.535Z,8.60
2019-02-28T07:55:00.867Z,8.70
2019-02-28T07:57:28.372Z,8.80
2019-02-28T07:59:55.899Z,9.10
2019-02-28T08:02:23.377Z,9.60
2019-02-28T08:04:54.271Z,10.10
2019-02-28T08:07:20.205Z,10.60
2019-02-28T08:09:47.714Z,10.70
2019-02-28T08:12:15.229Z,11.10
2019-02-28T08:14:43.667Z,11.20
2019-02-28T08:17:12.097Z,11.60
2019-02-28T08:19:39.651Z,11.80
2019-02-28T08:22:07.129Z,12.00
2019-02-28T08:24:35.888Z,12.30
2019-02-28T08:27:04.075Z,12.30
2019-02-28T08:29:31.573Z,12.50
2019-02-28T08:31:59.108Z,12.80
2019-02-28T08:34:26.709Z,13.20
2019-02-28T08:36:54.200Z,13.40
2019-02-28T08:39:21.834Z,13.60
2019-02-28T08:41:49.685Z,13.70
2019-02-28T08:44:22.758Z,13.60
2019-02-28T08:46:47.335Z,13.40
2019-02-28T08:49:14.929Z,13.10
2019-02-28T08:51:43.253Z,12.50
2019-02-28T08:54:10.876Z,12.30
2019-02-28T08:56:38.388Z,11.80
2019-02-28T08:59:11.810Z,11.50
2019-02-28T09:01:40.087Z,11.20
2019-02-28T09:04:05.712Z,11.00
2019-02-28T09:06:33.390Z,10.90
2019-02-28T09:09:00.890Z,11.00
2019-02-28T09:11:28.479Z,11.00
2019-02-28T09:13:55.979Z,11.00
2019-02-28T09:16:23.474Z,11.10
2019-02-28T09:18:51.004Z,11.30
2019-02-28T09:21:19.108Z,11.30
2019-02-28T09:23:46.712Z,11.30
2019-02-28T09:26:14.217Z,11.30
2019-02-28T09:28:44.421Z,11.30
2019-02-28T09:31:11.101Z,11.30
2019-02-28T09:33:38.597Z,11.30
2019-02-28T09:36:06.114Z,11.30
2019-02-28T09:38:33.627Z,11.20
2019-02-28T09:41:01.445Z,11.30
2019-02-28T09:43:30.463Z,11.30
2019-02-28T09:45:57.975Z,11.30
2019-02-28T09:48:25.458Z,11.30
2019-02-28T09:50:57.777Z,11.30
2019-02-28T09:53:22.309Z,11.50
2019-02-28T09:55:49.796Z,11.50
2019-02-28T09:58:17.353Z,11.40
2019-02-28T10:00:46.912Z,11.30
2019-02-28T10:03:15.507Z,11.30
2019-02-28T10:05:43.462Z,11.50
2019-02-28T10:08:10.973Z,11.60
2019-02-28T10:10:38.457Z,11.70
2019-02-28T10:13:05.958Z,11.80
2019-02-28T10:15:33.441Z,11.90
2019-02-28T10:18:04.063Z,11.90
2019-02-28T10:20:30.236Z,11.90
2019-02-28T10:22:57.753Z,11.90
2019-02-28T10:25:25.328Z,11.80
2019-02-28T10:27:54.516Z,11.70
2019-02-28T10:30:31.124Z,11.60
2019-02-28T10:32:51.942Z,11.50
2019-02-28T10:35:19.403Z,11.50
2019-02-28T10:37:47.147Z,11.50
2019-02-28T10:40:17.860Z,11.50
2019-02-28T10:42:46.173Z,11.60
2019-02-28T10:45:14.044Z,11.60
2019-02-28T10:47:41.516Z,11.60
2019-02-28T10:50:12.093Z,11.60
2019-02-28T10:52:39.573Z,11.60
2019-02-28T10:55:08.501Z,11.60
2019-02-28T10:57:37.210Z,11.70
2019-02-28T11:00:09.848Z,11.70
2019-02-28T11:02:37.370Z,11.70
2019-02-28T11:05:04.974Z,11.70
2019-02-28T11:07:34.211Z,11.60
2019-02-28T11:10:02.387Z,11.60
2019-02-28T11:12:29.877Z,11.60
2019-02-28T11:14:57.392Z,11.60
2019-02-28T11:17:24.872Z,11.60
2019-02-28T11:19:52.933Z,11.60
2019-02-28T11:22:20.471Z,11.60
2019-02-28T11:24:47.960Z,11.50
2019-02-28T11:27:16.071Z,11.50
2019-02-28T11:29:44.726Z,11.40
2019-02-28T11:32:12.238Z,11.30
2019-02-28T11:34:39.739Z,11.30
2019-02-28T11:37:08.894Z,11.40
2019-02-28T11:39:36.582Z,11.50
2019-02-28T11:42:04.086Z,11.50
2019-02-28T11:44:31.584Z,11.70
2019-02-28T11:46:59.188Z,11.80
2019-02-28T11:49:28.607Z,11.70
2019-02-28T11:51:56.084Z,11.70
2019-02-28T11:54:23.606Z,11.70
2019-02-28T11:56:51.099Z,11.70
2019-02-28T11:59:18.681Z,11.70
2019-02-28T12:01:48.358Z,11.60
2019-02-28T12:04:15.528Z,11.60
2019-02-28T12:06:43.024Z,11.70
2019-02-28T12:09:11.149Z,11.60
2019-02-28T12:11:38.633Z,11.60
2019-02-28T12:14:06.367Z,11.50
2019-02-28T12:16:35.272Z,11.60
2019-02-28T12:19:02.890Z,11.70
2019-02-28T12:21:30.386Z,11.80
2019-02-28T12:23:58.429Z,11.80
2019-02-28T12:26:27.341Z,11.80
2019-02-28T12:28:54.836Z,11.70
2019-02-28T12:31:22.329Z,11.70
2019-02-28T12:33:49.818Z,11.70
2019-02-28T12:36:17.341Z,11.60
2019-02-28T12:38:44.845Z,11.50
2019-02-28T12:41:12.364Z,11.50
2019-02-28T12:43:40.589Z,11.60
2019-02-28T12:46:09.021Z,11.60
2019-02-28T12:48:36.576Z,11.60
2019-02-28T12:51:05.388Z,11.60
2019-02-28T12:53:33.758Z,11.50
2019-02-28T12:56:01.397Z,11.40
2019-02-28T12:58:36.518Z,11.40
2019-02-28T13:01:00.074Z,11.50
2019-02-28T13:03:27.648Z,11.50
2019-02-28T13:05:55.308Z,11.50
2019-02-28T13:08:22.951Z,11.50
2019-02-28T13:10:50.436Z,11.50
2019-02-28T13:13:21.594Z,11.50
2019-02-28T13:15:49.174Z,11.50
2019-02-28T13:18:16.582Z,11.40
2019-02-28T13:20:44.120Z,11.40
2019-02-28T13:23:11.708Z,11.30
2019-02-28T13:25:39.232Z,11.40
2019-02-28T13:28:06.766Z,11.40
2019-02-28T13:30:34.268Z,11.40
2019-02-28T13:33:01.837Z,11.30
2019-02-28T13:35:30.032Z,11.40
2019-02-28T13:37:57.524Z,11.40
2019-02-28T13:40:25.092Z,11.40
2019-02-28T13:42:52.692Z,11.50
2019-02-28T13:45:23.170Z,11.50
2019-02-28T13:47:49.790Z,11.50
2019-02-28T13:50:22.162Z,11.40
2019-02-28T13:52:52.093Z,11.30
2019-02-28T13:55:18.956Z,11.30
2019-02-28T13:57:47.546Z,11.30
2019-02-28T14:00:19.827Z,11.20
2019-02-28T14:02:47.462Z,11.20
2019-02-28T14:05:14.983Z,11.20
2019-02-28T14:07:42.561Z,11.20
2019-02-28T14:10:11.464Z,11.20
2019-02-28T14:12:39.142Z,11.30
2019-02-28T14:15:08.529Z,11.30
2019-02-28T14:17:36.470Z,11.30
2019-02-28T14:20:04.628Z,11.20
2019-02-28T14:22:32.150Z,11.20
2019-02-28T14:25:05.161Z,11.30
2019-02-28T14:27:29.040Z,11.30
2019-02-28T14:29:56.643Z,11.30
2019-02-28T14:32:24.203Z,11.20
2019-02-28T14:34:51.717Z,11.10
2019-02-28T14:37:19.630Z,11.00
2019-02-28T14:39:47.978Z,10.90
2019-02-28T14:42:15.488Z,10.80
2019-02-28T14:44:43.080Z,10.80
2019-02-28T14:47:10.769Z,10.70
2019-02-28T14:49:38.283Z,10.70
2019-02-28T14:52:05.814Z,10.70
2019-02-28T14:54:33.517Z,10.70
2019-02-28T14:57:01.087Z,10.60
2019-02-28T14:59:31.011Z,10.60
2019-02-28T15:01:57.940Z,10.60
2019-02-28T15:04:25.482Z,10.70
2019-02-28T15:06:53.002Z,10.70
2019-02-28T15:09:20.518Z,10.60
2019-02-28T15:11:48.240Z,10.60
2019-02-28T15:14:15.781Z,10.60
2019-02-28T15:16:43.311Z,10.50
2019-02-28T15:19:10.966Z,10.50
2019-02-28T15:21:42.269Z,10.60
2019-02-28T15:24:08.531Z,10.50
2019-02-28T15:26:37.157Z,10.40
2019-02-28T15:29:04.703Z,10.40
2019-02-28T15:31:33.133Z,10.50
2019-02-28T15:34:02.240Z,10.40
2019-02-28T15:36:30.284Z,10.30
2019-02-28T15:38:57.965Z,10.30
2019-02-28T15:41:25.638Z,10.10
2019-02-28T15:43:53.702Z,10.20
2019-02-28T15:46:21.922Z,10.20
2019-02-28T15:48:49.535Z,10.10
2019-02-28T15:51:17.064Z,10.00
2019-02-28T15:53:46.847Z,10.00
2019-02-28T15:56:19.729Z,9.90
2019-02-28T15:58:44.033Z,9.80
2019-02-28T16:01:11.592Z,9.80
2019-02-28T16:03:39.131Z,9.80
2019-02-28T16:06:06.689Z,9.70
2019-02-28T16:08:34.248Z,9.70
2019-02-28T16:11:03.319Z,9.60
2019-02-28T16:13:31.248Z,9.50
2019-02-28T16:15:58.861Z,9.50
2019-02-28T16:18:26.362Z,9.40
2019-02-28T16:20:53.939Z,9.30
2019-02-28T16:23:23.536Z,9.20
2019-02-28T16:25:50.891Z,9.10
2019-02-28T16:28:18.423Z,9.00
2019-02-28T16:30:45.994Z,8.90
2019-02-28T16:33:13.523Z,8.80
2019-02-28T16:35:41.082Z,8.80
2019-02-28T16:38:10.117Z,8.80
2019-02-28T16:40:37.989Z,8.90
2019-02-28T16:43:05.569Z,8.80
2019-02-28T16:45:37.477Z,8.80
2019-02-28T16:48:13.937Z,8.60
2019-02-28T16:50:41.462Z,8.60
2019-02-28T16:53:14.995Z,8.60
2019-02-28T16:55:38.301Z,8.50
2019-02-28T16:58:05.869Z,8.40
2019-02-28T17:00:33.436Z,8.70
2019-02-28T17:03:04.087Z,8.50
2019-02-28T17:05:30.363Z,8.40
2019-02-28T17:07:57.889Z,8.30
2019-02-28T17:10:35.488Z,8.30
2019-02-28T17:13:25.159Z,8.30
2019-02-28T17:16:15.174Z,8.20
2019-02-28T17:18:42.710Z,8.10
2019-02-28T17:21:16.882Z,8.00
2019-02-28T17:23:39.700Z,7.80
2019-02-28T17:26:07.216Z,7.70
2019-02-28T17:28:46.566Z,7.60
2019-02-28T17:31:22.840Z,7.50
2019-02-28T17:33:50.447Z,7.40
2019-02-28T17:36:17.989Z,7.50
2019-02-28T17:38:45.505Z,7.40
2019-02-28T17:41:13.080Z,7.40
2019-02-28T17:43:40.963Z,7.40
2019-02-28T17:46:09.716Z,7.40
2019-02-28T17:49:07.370Z,7.40
2019-02-28T17:51:59.525Z,7.40
2019-02-28T17:54:46.325Z,7.40
2019-02-28T17:57:53.869Z,7.40
2019-02-28T18:00:53.178Z,7.30
2019-02-28T18:03:51.086Z,7.40
2019-02-28T18:06:55.134Z,7.40
2019-02-28T18:10:37.706Z,7.30
2019-02-28T18:13:20.214Z,7.30
2019-02-28T18:16:21.620Z,7.30
2019-02-28T18:19:36.900Z,7.30
2019-02-28T18:22:22.606Z,7.30
2019-02-28T18:25:52.326Z,7.30
2019-02-28T18:29:05.703Z,7.30
2019-02-28T18:31:33.224Z,7.30
2019-02-28T18:34:06.303Z,7.30
2019-02-28T18:36:33.851Z,7.20
2019-02-28T18:39:01.369Z,7.20
2019-02-28T18:41:28.876Z,7.20
2019-02-28T18:43:56.640Z,7.30
2019-02-28T18:46:24.208Z,7.20
2019-02-28T18:48:54.380Z,7.10
2019-02-28T18:51:21.087Z,7.20
2019-02-28T18:53:48.602Z,7.40
2019-02-28T18:56:16.183Z,7.30
2019-02-28T18:58:43.733Z,7.30
2019-02-28T19:01:11.280Z,7.30
2019-02-28T19:03:38.870Z,7.30
2019-02-28T19:06:06.618Z,7.40
2019-02-28T19:08:34.243Z,7.30
2019-02-28T19:11:01.786Z,7.30
2019-02-28T19:13:29.329Z,7.10
2019-02-28T19:15:57.070Z,7.00
2019-02-28T19:18:24.644Z,7.10
2019-02-28T19:20:52.178Z,7.00
2019-02-28T19:23:19.744Z,6.90
2019-02-28T19:25:47.276Z,6.90
2019-02-28T19:28:14.822Z,6.70
2019-02-28T19:30:42.374Z,6.70
2019-02-28T19:33:09.905Z,6.60
2019-02-28T19:35:37.462Z,6.40
2019-02-28T19:38:05.030Z,6.40
2019-02-28T19:40:32.613Z,6.40
2019-02-28T19:43:00.131Z,6.30
2019-02-28T19:45:28.384Z,6.40
2019-02-28T19:47:55.872Z,6.40
2019-02-28T19:50:23.453Z,6.30
2019-02-28T19:52:50.972Z,6.30
2019-02-28T19:55:18.545Z,6.20
2019-02-28T19:57:46.061Z,6.20
2019-02-28T20:00:14.777Z,6.20
2019-02-28T20:02:42.384Z,6.20
2019-02-28T20:05:10.087Z,6.20
2019-02-28T20:07:37.633Z,6.20
2019-02-28T20:10:07.878Z,6.10
2019-02-28T20:12:35.385Z,6.20
2019-02-28T20:15:03.531Z,6.00
2019-02-28T20:17:31.086Z,6.00
2019-02-28T20:19:58.672Z,5.90
2019-02-28T20:22:26.536Z,6.00
2019-02-28T20:24:54.100Z,6.00
2019-02-28T20:27:21.632Z,6.00
2019-02-28T20:29:55.063Z,5.90
2019-02-28T20:32:18.479Z,5.90
2019-02-28T20:34:45.982Z,5.80
2019-02-28T20:37:13.498Z,5.70
2019-02-28T20:39:41.007Z,5.70
2019-02-28T20:42:08.558Z,5.70
2019-02-28T20:44:36.143Z,5.60
2019-02-28T20:47:03.648Z,5.60
2019-02-28T20:49:31.222Z,5.60
2019-02-28T20:51:58.750Z,5.60
2019-02-28T20:54:26.263Z,5.50
2019-02-28T20:56:53.827Z,5.50
2019-02-28T20:59:21.343Z,5.50
2019-02-28T21:01:48.879Z,5.40
2019-02-28T21:04:16.397Z,5.40
2019-02-28T21:06:43.974Z,5.40
2019-02-28T21:09:14.158Z,5.30
2019-02-28T21:11:41.683Z,5.20
2019-02-28T21:14:09.263Z,5.20
2019-02-28T21:16:36.782Z,5.10
2019-02-28T21:19:04.309Z,5.00
2019-02-28T21:21:31.855Z,5.00
2019-02-28T21:23:59.657Z,4.90
2019-02-28T21:26:27.177Z,4.90
2019-02-28T21:28:54.740Z,4.80
2019-02-28T21:31:22.271Z,4.70
2019-02-28T21:33:49.792Z,4.70
2019-02-28T21:36:17.333Z,4.50
2019-02-28T21:38:44.915Z,4.40
2019-02-28T21:41:12.441Z,4.40
2019-02-28T21:43:39.995Z,4.40
2019-02-28T21:46:07.538Z,4.30
2019-02-28T21:48:35.054Z,4.30
2019-02-28T21:51:02.913Z,4.20
2019-02-28T21:53:30.447Z,4.10
2019-02-28T21:55:57.948Z,4.10
2019-02-28T21:58:25.502Z,4.10
2019-02-28T22:00:53.086Z,4.00
2019-02-28T22:03:20.684Z,3.90
2019-02-28T22:05:48.231Z,3.80
2019-02-28T22:08:15.733Z,3.80
2019-02-28T22:10:43.254Z,3.70
2019-02-28T22:13:10.795Z,3.70
2019-02-28T22:15:38.334Z,3.60
2019-02-28T22:18:05.846Z,3.60
2019-02-28T22:20:33.365Z,3.60
2019-02-28T22:23:00.894Z,3.60
2019-02-28T22:25:28.387Z,3.60
2019-02-28T22:27:55.923Z,3.60
2019-02-28T22:30:57.669Z,3.50
2019-02-28T22:33:40.666Z,3.50
2019-02-28T22:36:09.875Z,3.40
2019-02-28T22:38:37.413Z,3.40
2019-02-28T22:41:04.958Z,3.50
2019-02-28T22:43:32.486Z,3.50
2019-02-28T22:46:00.054Z,3.50
2019-02-28T22:48:27.790Z,3.50
2019-02-28T22:50:55.298Z,3.50
2019-02-28T22:53:22.848Z,3.50
2019-02-28T22:55:50.342Z,3.40
2019-02-28T22:58:17.896Z,3.40
2019-02-28T23:00:57.862Z,3.40
2019-02-28T23:03:26.079Z,3.30
2019-02-28T23:05:53.583Z,3.30
2019-02-28T23:08:21.171Z,3.30
2019-02-28T23:10:48.733Z,3.20
2019-02-28T23:13:16.256Z,3.20
2019-02-28T23:15:43.843Z,3.30
2019-02-28T23:18:11.341Z,3.20
2019-02-28T23:20:38.854Z,3.30
2019-02-28T23:23:06.405Z,3.20
2019-02-28T23:25:33.949Z,3.20
2019-02-28T23:28:27.573Z,3.10
2019-02-28T23:31:10.541Z,3.10
2019-02-28T23:33:38.078Z,3.00
2019-02-28T23:36:05.571Z,3.00
2019-02-28T23:38:35.871Z,2.90
2019-02-28T23:41:03.855Z,2.90
2019-02-28T23:43:31.388Z,2.90
2019-02-28T23:45:58.899Z,2.90
2019-02-28T23:48:26.411Z,2.80
2019-02-28T23:50:53.914Z,2.70
2019-02-28T23:53:21.448Z,2.70
2019-02-28T23:55:48.980Z,2.70
2019-02-28T23:58:16.479Z,2.70
